메인 페이지
METAR-TAF:

METAR-TAF

공항 :

Tuxtla Gutiérrez, 멕시코

위도: 16-45N, 경도: 093-07W, 고도: 528m

현재 날씨관측

예보는 4 시간 13분 전, 04:44시(UTC)에 발표되었습니다.
남동4kt
온도 23°C
습도 100%
기압 1012 hPa
시정: 12.9km
고도 2500ft 상공 구름 보통
고도 8000ft 상공 구름 많음
고도 30000ft 상공 흐림
약한비

METAR: MMTG 210444Z 14004KT 8SM -RA SCT025 BKN080 OVC300 23/23 A2988 RMK 60055 8/463 -RA INTRMT

시각: 03:57 (08:57 UTC)

예보

예보는 3 시간 19분 전, 05:38시(UTC)에 발표되었습니다.
예보 대상 시간: 21일 06시부터 22일 06시까지 (UTC)
남동5kt
시정: 9.7km
고도 2000ft 상공 구름 많음
고도 8000ft 상공 구름 많음
고도 30000ft 상공 흐림
약한비
21일 1000시부터 (UTC)
남남동6kt
시정: 8.0km
고도 1500ft 상공 구름 많음
고도 8000ft 상공 구름 많음
연무
일시적
21일 10시부터 21일 14시까지 (UTC)
시정: 4.8km
고도 1000ft 상공 구름 많음
박무
21일 1800시부터 (UTC)
남남동10kt
시정: 10km
고도 2500ft 상공 구름 많음
고도 8000ft 상공 구름 많음
일시적
21일 19시부터 21일 23시까지 (UTC)
시정: 6.4km
고도 2500ft 상공 구름 많음, 적란운.
뇌우, 비,

TAF: MMTG 210538Z 2106/2206 14005KT 6SM -RA BKN020 BKN080 OVC300 FM211000 15006KT 5SM HZ BKN015 BKN080 TEMPO 2110/2114 3SM BR BKN010 FM211800 16010KT P6SM BKN025 BKN080 TEMPO 2119/2123 4SM TSRA BKN025CB

4,000개 이상의 공항 관측 자료 및 예보 (METAR 및 TAF 보고).

지도상에서 검색 가능한 기상관측소가 노란 점과 빨간 점으로 표시되어 있습니다.

기상관측소 명을 보려면 표시 위로 마우스를 이동하세요.

날씨 관측과 예보를 보려면 클릭하세요.

지도 변경 : 확대하려면 엑스 표시가 있는 녹색 버튼, 축소하려면 빼기 표시가 있는 녹색 버튼, 다음 페이지의 지도를 보려면 녹색 화살표를 클릭하세요.


METAR-TAF: